Time;durP1;ratioP1;P1;durP2;ratioP2;P2;SDS_P1;SDS_P2;PMS_P1;PMS_P2;Temp;Humidity;BMP_temperature;BMP_pressure;BME280_temperature;BME280_humidity;BME280_pressure;Samples;Min_cycle;Max_cycle;Signal;HPM_P1;HPM_P2
2023/06/15 04:30:35;;;;;;;;;19.25;18.75;;;;;23.74;42.57;101219.84;5088365;27;45531;-72
2023/06/15 04:33:00;;;;;;;;;24.25;20.75;;;;;23.76;42.54;101212.38;5043347;28;45267;-73
2023/06/15 04:35:31;;;;;;;;;30.75;26.25;;;;;23.79;42.13;101213.09;5035404;28;45296;-74
2023/06/15 04:37:58;;;;;;;;;22.75;22.50;;;;;23.88;41.92;101220.44;5035659;28;47192;-73
2023/06/15 04:40:24;;;;;;;;;18.50;18.50;;;;;23.95;41.17;101225.19;5035622;28;45320;-73
2023/06/15 04:42:50;;;;;;;;;18.50;18.50;;;;;23.96;40.94;101226.94;5035904;28;45214;-73
2023/06/15 04:45:15;;;;;;;;;16.25;16.25;;;;;24.00;41.40;101219.28;5017803;28;46984;-72
2023/06/15 04:47:42;;;;;;;;;18.50;18.50;;;;;24.04;40.66;101218.84;5035412;28;45506;-73
2023/06/15 04:50:08;;;;;;;;;20.75;18.75;;;;;24.06;40.18;101216.84;5004486;28;46279;-73
2023/06/15 04:52:34;;;;;;;;;15.00;15.00;;;;;24.07;40.73;101225.94;5035676;28;45438;-72
2023/06/15 04:55:00;;;;;;;;;18.00;17.00;;;;;24.12;40.25;101218.13;5035276;28;45470;-73
2023/06/15 04:57:25;;;;;;;;;20.00;17.75;;;;;24.20;40.10;101231.97;5035615;28;45984;-73
2023/06/15 04:59:50;;;;;;;;;22.50;22.00;;;;;24.25;40.38;101232.41;5035479;28;45395;-72
2023/06/15 05:02:16;;;;;;;;;23.50;21.00;;;;;24.19;41.07;101235.69;5035415;28;45475;-72
2023/06/15 05:04:41;;;;;;;;;23.75;21.50;;;;;24.02;42.02;101225.47;5034988;28;45450;-72
2023/06/15 05:07:08;;;;;;;;;24.50;22.00;;;;;23.88;42.29;101231.41;5017285;28;46213;-73
2023/06/15 05:09:33;;;;;;;;;28.25;25.50;;;;;23.66;43.01;101221.59;5035437;28;45366;-78
2023/06/15 05:11:58;;;;;;;;;28.25;25.75;;;;;23.65;43.29;101223.44;5036926;28;45688;-74
2023/06/15 05:14:26;;;;;;;;;26.00;22.75;;;;;23.71;43.15;101236.59;5033043;28;51516;-77
2023/06/15 05:16:51;;;;;;;;;24.50;22.50;;;;;23.80;43.16;101234.00;5017170;28;47266;-77
2023/06/15 05:19:17;;;;;;;;;21.25;20.25;;;;;23.85;42.97;101227.06;5034841;28;45242;-77
2023/06/15 05:21:42;;;;;;;;;26.25;23.25;;;;;24.01;42.68;101242.91;5035551;28;45371;-83
2023/06/15 05:24:08;;;;;;;;;24.50;23.75;;;;;23.98;42.77;101238.63;5034924;28;45352;-78
2023/06/15 05:26:33;;;;;;;;;25.75;24.50;;;;;24.04;42.60;101232.56;5017450;28;46981;-82
2023/06/15 05:28:58;;;;;;;;;24.50;22.00;;;;;23.96;42.83;101215.97;5034946;28;45324;-79
2023/06/15 05:31:24;;;;;;;;;25.00;21.50;;;;;24.16;42.25;101244.19;5013724;28;45598;-79
2023/06/15 05:33:49;;;;;;;;;26.00;20.25;;;;;24.26;42.56;101250.56;5025807;28;45587;-76
2023/06/15 05:36:15;;;;;;;;;20.50;20.50;;;;;24.21;42.38;101241.06;5005536;28;47255;-76
2023/06/15 05:38:40;;;;;;;;;23.75;22.25;;;;;24.15;42.47;101239.75;5013525;28;45325;-75
2023/06/15 05:41:05;;;;;;;;;26.75;24.00;;;;;24.09;42.24;101243.06;5026517;28;45486;-77
2023/06/15 05:43:31;;;;;;;;;22.25;19.75;;;;;24.18;42.75;101255.03;5034306;28;45427;-83
2023/06/15 05:45:56;;;;;;;;;26.00;21.50;;;;;24.23;42.37;101256.38;5034605;28;45494;-75
2023/06/15 05:48:21;;;;;;;;;25.25;22.00;;;;;24.30;42.22;101259.38;5033938;28;45300;-76
2023/06/15 05:50:47;;;;;;;;;28.50;26.00;;;;;24.32;42.63;101255.50;5041291;28;48711;-75
2023/06/15 05:53:13;;;;;;;;;20.25;16.50;;;;;24.40;40.79;101247.41;5029380;28;46282;-80
2023/06/15 05:55:39;;;;;;;;;17.25;17.00;;;;;24.58;40.78;101263.94;5005309;28;47676;-76
2023/06/15 05:58:04;;;;;;;;;15.25;14.50;;;;;24.64;40.07;101259.75;5032785;28;45419;-74
2023/06/15 06:00:30;;;;;;;;;17.25;14.00;;;;;24.66;38.62;101255.84;5034635;28;45377;-76
2023/06/15 06:02:56;;;;;;;;;12.50;12.25;;;;;24.69;38.95;101247.31;5034089;28;45340;-75
2023/06/15 06:05:23;;;;;;;;;13.25;12.00;;;;;24.83;38.79;101268.78;5016109;28;47368;-75
2023/06/15 06:07:49;;;;;;;;;13.75;13.75;;;;;24.87;38.04;101263.84;4997932;28;45305;-76
2023/06/15 06:10:17;;;;;;;;;15.50;14.00;;;;;24.87;38.03;101258.34;5025336;28;45237;-76
2023/06/15 06:12:42;;;;;;;;;12.25;11.25;;;;;24.97;37.98;101263.84;5019525;28;45589;-76
2023/06/15 06:15:08;;;;;;;;;15.00;12.50;;;;;25.06;37.42;101266.56;5034381;28;45911;-77
2023/06/15 06:17:33;;;;;;;;;19.50;13.00;;;;;25.09;37.46;101259.91;5029179;28;45383;-76
2023/06/15 06:20:00;;;;;;;;;17.50;16.50;;;;;25.08;37.48;101274.63;5025894;28;47159;-76
2023/06/15 06:22:25;;;;;;;;;12.75;12.75;;;;;25.14;37.88;101271.28;5033861;28;45232;-75
2023/06/15 06:24:50;;;;;;;;;15.50;13.50;;;;;25.20;37.29;101267.91;5033862;28;45549;-73
2023/06/15 06:27:16;;;;;;;;;13.25;11.00;;;;;25.25;37.30;101269.22;5034114;28;45482;-76
2023/06/15 06:29:41;;;;;;;;;11.25;9.75;;;;;25.32;37.45;101274.94;5034397;28;45327;-75
2023/06/15 06:32:07;;;;;;;;;15.75;12.75;;;;;25.29;37.11;101266.13;5024650;28;45372;-75
2023/06/15 06:34:35;;;;;;;;;11.25;10.75;;;;;25.42;36.99;101280.38;5049272;28;46107;-75
2023/06/15 06:37:02;;;;;;;;;12.25;9.50;;;;;25.42;37.38;101275.75;5039617;28;45313;-75
2023/06/15 06:39:27;;;;;;;;;17.00;12.75;;;;;25.43;36.93;101268.38;5037707;28;45304;-78
2023/06/15 06:41:53;;;;;;;;;15.50;13.00;;;;;25.49;37.09;101274.13;5037151;28;45280;-75
2023/06/15 06:44:19;;;;;;;;;16.75;12.00;;;;;25.39;36.54;101269.69;5037315;28;46006;-76
2023/06/15 06:46:45;;;;;;;;;12.75;10.75;;;;;25.42;37.15;101273.00;5037159;28;45559;-77
2023/06/15 06:49:10;;;;;;;;;17.25;13.50;;;;;25.45;36.48;101280.91;5008175;28;45605;-75
2023/06/15 06:51:36;;;;;;;;;12.25;12.25;;;;;25.48;37.17;101282.50;5044808;28;45284;-76
2023/06/15 06:54:02;;;;;;;;;13.50;12.75;;;;;25.54;37.17;101284.63;5045240;28;45209;-76
2023/06/15 06:56:27;;;;;;;;;13.50;13.50;;;;;25.54;37.24;101280.00;5019227;28;45248;-75
2023/06/15 06:58:54;;;;;;;;;13.25;12.00;;;;;25.59;37.28;101277.72;5037461;28;45324;-76
2023/06/15 07:01:19;;;;;;;;;14.00;12.50;;;;;25.64;36.56;101293.72;5019014;28;47273;-76
2023/06/15 07:03:44;;;;;;;;;11.75;11.25;;;;;25.62;36.77;101277.38;5036909;28;46023;-76
2023/06/15 07:06:10;;;;;;;;;14.25;10.75;;;;;25.74;36.60;101293.66;5036525;28;48021;-75
2023/06/15 07:08:35;;;;;;;;;25.50;20.75;;;;;25.75;36.90;101292.63;5019152;28;45297;-76
2023/06/15 07:11:00;;;;;;;;;12.75;12.75;;;;;25.73;36.11;101280.94;5043699;28;48942;-75
2023/06/15 07:13:26;;;;;;;;;11.00;11.00;;;;;25.83;36.31;101298.22;5045787;28;51257;-75
2023/06/15 07:15:54;;;;;;;;;14.00;11.00;;;;;25.77;35.63;101294.22;5036857;28;45403;-76
2023/06/15 07:18:20;;;;;;;;;14.25;12.00;;;;;25.84;36.71;101309.06;5038779;28;45317;-75
2023/06/15 07:20:45;;;;;;;;;14.75;11.50;;;;;25.80;35.55;101299.38;5056228;28;45499;-74
2023/06/15 07:23:11;;;;;;;;;12.00;10.75;;;;;25.83;36.75;101301.81;5057209;28;45208;-76
2023/06/15 07:25:36;;;;;;;;;11.50;10.25;;;;;25.87;36.61;101310.59;5056913;28;45472;-75
2023/06/15 07:28:03;;;;;;;;;14.50;13.50;;;;;25.90;36.39;101313.91;5057234;28;45153;-76
2023/06/15 07:30:29;;;;;;;;;11.75;10.75;;;;;25.93;36.08;101312.75;5056815;28;45253;-77
2023/06/15 07:32:55;;;;;;;;;16.75;14.50;;;;;25.94;36.20;101309.00;5036225;28;46384;-76
2023/06/15 07:35:20;;;;;;;;;11.75;10.50;;;;;25.93;35.79;101310.88;5031939;28;45284;-77
2023/06/15 07:37:46;;;;;;;;;10.75;10.00;;;;;25.97;35.95;101297.66;5017200;28;45738;-75
2023/06/15 07:40:12;;;;;;;;;13.75;11.50;;;;;25.98;36.41;101311.25;5016258;28;45447;-74
2023/06/15 07:42:37;;;;;;;;;10.50;9.50;;;;;26.00;36.39;101303.72;4998767;28;45894;-77
2023/06/15 07:45:03;;;;;;;;;14.25;14.00;;;;;26.05;36.32;101311.47;5015971;28;45253;-75
2023/06/15 07:47:28;;;;;;;;;9.50;8.00;;;;;26.10;36.41;101309.16;5016401;28;45595;-76
2023/06/15 07:49:53;;;;;;;;;9.25;9.25;;;;;26.11;36.01;101310.88;5023576;28;45764;-77
2023/06/15 07:52:19;;;;;;;;;14.75;13.75;;;;;26.14;35.80;101316.03;5027526;28;46264;-77
2023/06/15 07:54:44;;;;;;;;;12.00;12.00;;;;;26.12;36.04;101309.81;5018862;28;45331;-76
2023/06/15 07:57:10;;;;;;;;;15.75;13.00;;;;;26.23;35.66;101319.72;5016968;28;45481;-77
2023/06/15 07:59:35;;;;;;;;;12.50;12.50;;;;;26.24;35.75;101314.06;5016436;28;45656;-76
2023/06/15 08:02:02;;;;;;;;;10.50;10.50;;;;;26.29;35.38;101319.13;5016782;28;46153;-75
2023/06/15 08:04:28;;;;;;;;;9.50;9.00;;;;;26.28;34.94;101318.28;5016102;28;45328;-77
2023/06/15 08:06:53;;;;;;;;;10.00;9.25;;;;;26.35;35.11;101315.75;5016586;28;45269;-76
2023/06/15 08:09:19;;;;;;;;;9.50;9.00;;;;;26.36;35.37;101323.84;5016141;28;45447;-76
2023/06/15 08:11:45;;;;;;;;;9.75;9.00;;;;;26.45;35.30;101330.28;5029455;28;46097;-77
2023/06/15 08:14:10;;;;;;;;;10.00;9.25;;;;;26.41;34.86;101317.88;5018821;28;45370;-76
2023/06/15 08:16:35;;;;;;;;;12.00;10.25;;;;;26.50;34.35;101327.06;5016294;28;45261;-75
2023/06/15 08:19:02;;;;;;;;;9.75;9.75;;;;;26.52;34.73;101325.88;5015581;28;45427;-76
2023/06/15 08:21:27;;;;;;;;;10.75;9.75;;;;;26.48;33.66;101316.19;5016051;28;45975;-76
2023/06/15 08:23:53;;;;;;;;;6.50;6.50;;;;;26.44;33.96;101317.56;5015872;28;45328;-76
2023/06/15 08:26:18;;;;;;;;;9.25;8.25;;;;;26.55;34.36;101331.03;5016154;28;45365;-74
2023/06/15 08:28:43;;;;;;;;;9.75;9.75;;;;;26.50;33.10;101322.41;5015924;28;49186;-76
2023/06/15 08:31:08;;;;;;;;;10.00;8.75;;;;;26.51;33.85;101320.53;5021314;28;45336;-76
2023/06/15 08:33:34;;;;;;;;;8.75;7.50;;;;;26.55;32.54;101331.03;5041430;28;45254;-77
2023/06/15 08:35:59;;;;;;;;;6.75;6.75;;;;;26.52;33.83;101330.50;5045842;28;45268;-75
2023/06/15 08:38:25;;;;;;;;;10.75;9.00;;;;;26.53;33.89;101327.59;5035537;28;45446;-76
2023/06/15 08:40:50;;;;;;;;;9.50;7.75;;;;;26.57;33.57;101329.00;5035893;28;45908;-75
2023/06/15 08:43:17;;;;;;;;;10.50;9.00;;;;;26.59;33.48;101329.72;5035522;28;45328;-76
2023/06/15 08:45:48;;;;;;;;;8.00;7.25;;;;;26.63;33.18;101328.34;5036126;28;45394;-75
2023/06/15 08:48:16;;;;;;;;;10.00;7.75;;;;;26.65;33.48;101326.31;5035264;28;45367;-74
2023/06/15 08:50:44;;;;;;;;;9.00;9.00;;;;;26.67;32.99;101326.16;5018489;28;46299;-75
2023/06/15 08:53:11;;;;;;;;;7.25;7.00;;;;;26.71;32.39;101328.41;5050687;28;45461;-76
2023/06/15 08:55:37;;;;;;;;;9.50;7.75;;;;;26.71;33.02;101333.06;5035413;28;45306;-76
2023/06/15 08:58:07;;;;;;;;;6.50;6.50;;;;;26.71;32.62;101328.41;5034845;28;45353;-75
2023/06/15 09:00:32;;;;;;;;;6.00;6.00;;;;;26.77;32.69;101326.06;5035325;28;46140;-77
2023/06/15 09:03:00;;;;;;;;;7.00;7.00;;;;;26.78;33.04;101327.78;5017478;28;45443;-75
2023/06/15 09:05:26;;;;;;;;;10.50;6.50;;;;;26.80;31.91;101329.34;5022014;28;45394;-74
2023/06/15 09:07:52;;;;;;;;;8.00;8.00;;;;;26.77;32.08;101326.06;5013796;28;46963;-76
2023/06/15 09:10:19;;;;;;;;;4.75;4.75;;;;;26.80;31.48;101333.97;5031448;28;45505;-75
2023/06/15 09:12:49;;;;;;;;;8.00;8.00;;;;;26.81;32.05;101335.69;5042011;28;45411;-76
2023/06/15 09:15:25;;;;;;;;;6.25;5.00;;;;;26.79;32.05;101319.38;5055477;28;45421;-76
2023/06/15 09:17:52;;;;;;;;;8.00;8.00;;;;;26.83;32.28;101330.91;5055263;28;45410;-75
2023/06/15 09:20:22;;;;;;;;;10.00;9.50;;;;;26.85;32.15;101320.63;5054697;28;45521;-75
2023/06/15 09:22:48;;;;;;;;;8.50;7.00;;;;;26.90;31.95;101329.22;5055312;28;45317;-74
2023/06/15 09:25:21;;;;;;;;;9.00;9.00;;;;;26.91;32.09;101323.59;5054825;28;45328;-76
2023/06/15 09:27:56;;;;;;;;;8.00;8.00;;;;;26.94;32.58;101322.44;5055464;28;45391;-75
2023/06/15 09:30:33;;;;;;;;;6.25;6.25;;;;;26.98;32.60;101321.06;5036618;28;48337;-76
2023/06/15 09:32:59;;;;;;;;;10.00;9.00;;;;;27.02;32.23;101331.59;5046318;28;45263;-77
2023/06/15 09:35:25;;;;;;;;;8.00;7.50;;;;;27.03;31.93;101324.19;5034422;28;45171;-76
2023/06/15 09:37:56;;;;;;;;;6.50;6.50;;;;;27.04;32.36;101324.03;5035023;28;45361;-77
2023/06/15 09:40:25;;;;;;;;;8.00;8.00;;;;;27.08;32.01;101325.44;5016766;28;47466;-77
2023/06/15 09:42:53;;;;;;;;;7.00;7.00;;;;;27.14;32.33;101326.66;5034908;28;45444;-76
2023/06/15 09:45:18;;;;;;;;;10.75;8.75;;;;;27.16;31.56;101324.59;5034670;28;45363;-77
2023/06/15 09:47:44;;;;;;;;;7.75;7.75;;;;;27.18;32.03;101322.56;5034888;28;45340;-76
2023/06/15 09:50:10;;;;;;;;;13.00;8.00;;;;;27.19;31.87;101324.28;5041176;28;46042;-75
2023/06/15 09:52:41;;;;;;;;;8.00;8.00;;;;;27.20;31.87;101320.53;5030023;28;45375;-75
2023/06/15 09:55:08;;;;;;;;;7.75;7.75;;;;;27.22;31.75;101323.13;5036987;28;45342;-76
2023/06/15 09:57:33;;;;;;;;;6.50;6.50;;;;;27.24;32.15;101329.28;5055012;28;45523;-75
2023/06/15 09:59:58;;;;;;;;;12.50;9.00;;;;;27.29;31.82;101325.03;5054314;28;53889;-76
2023/06/15 10:02:26;;;;;;;;;7.50;6.75;;;;;27.30;31.40;101324.00;5054567;28;45394;-76
2023/06/15 10:04:52;;;;;;;;;9.50;8.50;;;;;27.30;30.86;101321.25;5054460;28;45285;-75
2023/06/15 10:07:19;;;;;;;;;8.25;7.75;;;;;27.30;31.59;101323.16;5054545;28;45393;-74
2023/06/15 10:09:47;;;;;;;;;7.50;6.50;;;;;27.28;31.44;101314.19;5053643;28;45216;-76
2023/06/15 10:12:16;;;;;;;;;11.25;10.25;;;;;27.31;31.20;101319.34;5036853;28;45318;-77
2023/06/15 10:14:51;;;;;;;;;8.00;7.25;;;;;27.33;31.11;101325.56;5034880;28;45393;-75
2023/06/15 10:17:22;;;;;;;;;14.25;11.25;;;;;27.32;31.33;101326.56;5034240;28;45472;-76
2023/06/15 10:19:51;;;;;;;;;9.25;9.25;;;;;27.25;31.41;101326.38;5016084;28;47563;-75
2023/06/15 10:22:18;;;;;;;;;11.25;7.00;;;;;27.31;31.71;101330.34;5034152;28;45194;-75
2023/06/15 10:24:45;;;;;;;;;13.25;12.50;;;;;27.29;30.32;101318.66;5034407;28;45336;-76
2023/06/15 10:27:11;;;;;;;;;10.00;10.00;;;;;27.35;31.71;101327.13;5034016;28;45517;-78
2023/06/15 10:29:54;;;;;;;;;11.50;10.25;;;;;27.40;31.69;101324.72;5034226;28;46431;-76
2023/06/15 10:32:40;;;;;;;;;12.50;10.50;;;;;27.43;31.75;101318.03;5046252;28;45385;-75
2023/06/15 10:35:09;;;;;;;;;11.50;9.00;;;;;27.47;31.32;101316.69;5048101;28;45382;-75
2023/06/15 10:37:48;;;;;;;;;11.50;8.75;;;;;27.46;31.34;101314.97;5033918;28;45546;-76
2023/06/15 10:40:32;;;;;;;;;14.25;12.00;;;;;27.50;30.85;101319.97;5034190;28;45919;-76
2023/06/15 10:43:01;;;;;;;;;10.25;10.25;;;;;27.48;31.40;101310.13;5034151;28;45341;-78
2023/06/15 10:45:31;;;;;;;;;12.00;11.00;;;;;27.54;30.98;101314.16;5034508;28;45365;-77
2023/06/15 10:48:01;;;;;;;;;13.25;12.00;;;;;27.52;30.70;101311.53;5034135;28;45174;-76
2023/06/15 10:50:28;;;;;;;;;11.25;10.50;;;;;27.50;30.51;101295.16;5039376;28;45419;-76
2023/06/15 10:52:55;;;;;;;;;10.00;10.00;;;;;27.62;30.82;101315.06;5046925;28;45401;-77
2023/06/15 10:55:23;;;;;;;;;12.75;12.25;;;;;27.60;31.16;101313.47;5016358;28;45503;-75
2023/06/15 10:58:18;;;;;;;;;8.75;8.75;;;;;27.66;31.00;101313.66;5033978;28;45643;-75
2023/06/15 11:00:45;;;;;;;;;11.50;8.75;;;;;27.70;31.09;101316.97;5033900;28;45481;-76
2023/06/15 11:03:24;;;;;;;;;11.00;9.50;;;;;27.68;31.07;101308.84;5040588;28;45494;-74
2023/06/15 11:06:01;;;;;;;;;11.25;10.75;;;;;27.73;31.20;101305.63;5053746;28;45409;-76
2023/06/15 11:08:30;;;;;;;;;10.00;7.75;;;;;27.72;30.96;101296.50;5053853;28;45178;-76
2023/06/15 11:10:57;;;;;;;;;11.00;11.00;;;;;27.79;31.15;101307.69;5038053;28;46129;-76
2023/06/15 11:13:26;;;;;;;;;12.50;9.00;;;;;27.81;31.14;101305.63;5015809;28;45379;-76
2023/06/15 11:16:10;;;;;;;;;12.00;12.00;;;;;27.82;31.04;101299.06;5015633;28;45430;-76
2023/06/15 11:18:36;;;;;;;;;9.50;8.50;;;;;27.86;31.01;101295.81;5033714;28;45309;-74
2023/06/15 11:21:02;;;;;;;;;12.25;11.25;;;;;27.91;31.35;101305.47;5035705;28;45316;-75
2023/06/15 11:23:32;;;;;;;;;11.50;10.75;;;;;27.92;31.05;101307.19;5036994;28;45253;-77
2023/06/15 11:26:01;;;;;;;;;15.50;11.50;;;;;27.90;30.60;101307.38;5036966;28;45386;-77
2023/06/15 11:28:30;;;;;;;;;15.25;12.75;;;;;27.93;30.82;101306.16;5036797;28;45561;-76
2023/06/15 11:30:59;;;;;;;;;13.50;12.25;;;;;27.94;31.17;101297.72;5036531;28;46403;-76
2023/06/15 11:33:27;;;;;;;;;14.25;12.00;;;;;27.99;30.59;101300.81;5041005;28;45466;-77
2023/06/15 11:35:52;;;;;;;;;19.50;16.25;;;;;27.97;30.53;101285.50;5029541;28;45291;-76
2023/06/15 11:38:20;;;;;;;;;15.75;13.50;;;;;28.04;30.22;101297.56;5018637;28;46449;-77
2023/06/15 11:40:47;;;;;;;;;12.25;10.50;;;;;27.98;30.21;101281.72;5018800;28;47400;-77
2023/06/15 11:43:13;;;;;;;;;15.50;15.25;;;;;28.02;29.70;101280.34;5036537;28;45426;-77
2023/06/15 11:45:45;;;;;;;;;13.25;13.25;;;;;28.07;30.06;101283.47;5036933;28;45345;-78
2023/06/15 11:48:14;;;;;;;;;12.00;12.00;;;;;28.09;30.50;101285.00;5018826;28;45478;-78
2023/06/15 11:50:43;;;;;;;;;17.50;16.50;;;;;28.11;29.35;101288.44;5035940;28;46417;-78
2023/06/15 11:53:18;;;;;;;;;18.75;17.75;;;;;28.07;29.90;101259.50;5051193;28;45652;-77
2023/06/15 11:55:45;;;;;;;;;14.25;13.00;;;;;28.09;30.20;101253.81;5036599;28;45380;-75
2023/06/15 11:58:11;;;;;;;;;14.00;13.50;;;;;28.16;29.80;101276.94;5036185;28;45509;-77
2023/06/15 12:00:36;;;;;;;;;15.75;14.00;;;;;28.18;29.46;101278.50;5036221;28;46283;-76
2023/06/15 12:03:11;;;;;;;;;17.00;16.75;;;;;28.20;30.42;101268.16;5036452;28;45394;-77
2023/06/15 12:05:37;;;;;;;;;13.50;12.75;;;;;28.22;28.73;101274.38;5036037;28;45432;-76
2023/06/15 12:08:05;;;;;;;;;13.00;11.75;;;;;28.18;29.85;101264.69;5036029;28;45645;-76
2023/06/15 12:10:33;;;;;;;;;11.50;11.00;;;;;28.22;29.66;101277.13;5038993;28;46384;-76
2023/06/15 12:13:01;;;;;;;;;15.50;15.50;;;;;28.26;30.04;101282.28;5048437;28;45264;-76
2023/06/15 12:15:28;;;;;;;;;17.00;16.50;;;;;28.34;29.81;101282.28;5018228;28;45344;-76
2023/06/15 12:17:55;;;;;;;;;16.50;14.00;;;;;28.37;29.51;101285.56;5031602;28;45341;-75
2023/06/15 12:20:27;;;;;;;;;16.25;15.00;;;;;28.40;29.32;101273.34;5040518;28;45303;-77
2023/06/15 12:22:53;;;;;;;;;13.75;13.75;;;;;28.44;29.04;101272.78;5036236;28;45265;-76
2023/06/15 12:25:18;;;;;;;;;13.25;13.25;;;;;28.34;29.42;101246.44;5035931;28;45392;-76
2023/06/15 12:27:45;;;;;;;;;13.75;13.75;;;;;28.47;29.16;101255.91;5035810;28;45490;-76
2023/06/15 12:30:20;;;;;;;;;17.25;14.50;;;;;28.53;28.67;101263.47;5035660;28;45975;-75
2023/06/15 12:32:47;;;;;;;;;18.00;16.50;;;;;28.56;28.47;101276.06;5034985;28;45478;-77
2023/06/15 12:35:37;;;;;;;;;18.25;16.00;;;;;28.55;28.49;101266.94;5033632;28;45410;-75
2023/06/15 12:38:08;;;;;;;;;13.00;13.00;;;;;28.59;29.05;101264.66;5028728;28;45412;-76
2023/06/15 12:40:43;;;;;;;;;14.00;14.00;;;;;28.61;29.04;101268.13;5036472;28;46093;-75
2023/06/15 12:43:09;;;;;;;;;13.75;13.75;;;;;28.62;29.10;101272.59;5037460;28;45293;-76
2023/06/15 12:45:35;;;;;;;;;16.25;15.00;;;;;28.62;29.13;101269.84;5056164;28;45318;-76
2023/06/15 12:48:01;;;;;;;;;16.00;14.50;;;;;28.67;29.08;101269.34;5055475;28;45338;-77
2023/06/15 12:50:30;;;;;;;;;18.25;17.50;;;;;28.67;28.72;101261.91;5046713;28;45641;-76
2023/06/15 12:52:58;;;;;;;;;17.75;15.75;;;;;28.76;29.21;101262.75;5030619;28;46012;-76
2023/06/15 12:55:24;;;;;;;;;16.25;14.25;;;;;28.81;29.33;101254.84;5035673;28;45190;-77
2023/06/15 12:57:50;;;;;;;;;15.00;14.00;;;;;28.85;28.74;101258.97;5035389;28;45752;-78
2023/06/15 13:00:17;;;;;;;;;18.50;17.00;;;;;28.86;29.16;101257.94;5017917;28;46392;-76
2023/06/15 13:02:43;;;;;;;;;15.50;15.50;;;;;28.88;29.47;101255.84;5034571;28;45434;-76
2023/06/15 13:05:09;;;;;;;;;13.50;12.25;;;;;28.84;29.08;101241.53;5035363;28;45290;-77
2023/06/15 13:07:35;;;;;;;;;16.25;16.25;;;;;28.91;29.09;101252.75;5035282;28;45615;-76
2023/06/15 13:10:01;;;;;;;;;12.25;12.25;;;;;28.95;29.02;101243.94;5035356;28;46017;-76
2023/06/15 13:12:27;;;;;;;;;13.75;13.75;;;;;28.95;29.39;101241.16;5051619;28;45229;-77
2023/06/15 13:14:53;;;;;;;;;14.25;14.25;;;;;29.00;29.37;101248.06;5035520;28;45230;-77
2023/06/15 13:17:18;;;;;;;;;14.25;13.00;;;;;29.05;28.74;101240.09;5017315;28;45234;-78
2023/06/15 13:19:44;;;;;;;;;11.25;11.25;;;;;29.06;29.07;101239.06;5034948;28;45872;-77
2023/06/15 13:22:09;;;;;;;;;14.75;14.75;;;;;29.10;29.12;101244.03;5016990;28;45310;-75
2023/06/15 13:24:36;;;;;;;;;14.00;14.00;;;;;29.15;29.33;101238.00;5035162;28;45663;-76
2023/06/15 13:27:02;;;;;;;;;14.00;13.00;;;;;29.13;29.56;101238.16;5035093;28;45354;-76
2023/06/15 13:29:28;;;;;;;;;14.75;14.75;;;;;29.14;29.22;101253.69;5031993;28;48203;-78
2023/06/15 13:31:54;;;;;;;;;14.75;13.00;;;;;29.16;29.38;101254.38;5038923;28;45446;-77
2023/06/15 13:34:19;;;;;;;;;10.25;10.25;;;;;29.16;29.39;101248.00;5028798;28;45336;-77
2023/06/15 13:36:45;;;;;;;;;13.00;13.00;;;;;29.07;29.31;101238.03;5054982;28;45348;-77
2023/06/15 13:39:10;;;;;;;;;11.00;9.50;;;;;29.18;29.52;101254.19;5054944;28;45426;-76
2023/06/15 13:41:35;;;;;;;;;15.25;14.00;;;;;29.15;29.11;101246.28;5054854;28;45333;-76
2023/06/15 13:44:00;;;;;;;;;11.75;11.75;;;;;29.20;29.46;101241.94;5054093;28;45354;-78
2023/06/15 13:46:27;;;;;;;;;17.75;16.75;;;;;29.20;29.31;101241.06;5054783;28;45364;-76
2023/06/15 13:48:53;;;;;;;;;13.50;11.50;;;;;29.25;29.57;101246.94;5033727;28;46240;-75
2023/06/15 13:51:18;;;;;;;;;13.50;13.50;;;;;29.21;29.41;101235.38;5037093;28;45398;-77
2023/06/15 13:53:44;;;;;;;;;12.00;12.00;;;;;29.25;29.52;101244.16;5045564;28;45305;-75
2023/06/15 13:56:09;;;;;;;;;15.00;15.00;;;;;29.26;28.97;101240.38;5034452;28;51723;-76
2023/06/15 13:58:34;;;;;;;;;14.75;13.50;;;;;29.28;28.35;101241.88;5034453;28;45501;-76
2023/06/15 14:01:00;;;;;;;;;11.00;11.00;;;;;29.30;29.08;101237.06;5034349;28;45316;-76
2023/06/15 14:03:25;;;;;;;;;18.00;15.75;;;;;29.30;27.98;101227.91;5034820;28;45451;-76
2023/06/15 14:05:51;;;;;;;;;15.25;13.25;;;;;29.36;28.94;101235.50;5034190;28;45300;-76
2023/06/15 14:08:16;;;;;;;;;13.25;11.25;;;;;29.34;27.93;101227.38;5034579;28;45976;-76
2023/06/15 14:10:42;;;;;;;;;14.25;13.75;;;;;29.34;28.02;101230.16;5038868;28;45505;-75
2023/06/15 14:13:07;;;;;;;;;14.00;12.25;;;;;29.32;28.22;101234.13;5045809;28;45402;-75
2023/06/15 14:15:33;;;;;;;;;14.00;14.00;;;;;29.30;27.28;101234.28;5034423;28;45375;-75
2023/06/15 14:17:58;;;;;;;;;13.50;13.50;;;;;29.29;27.98;101234.47;5034622;28;45823;-76
2023/06/15 14:20:23;;;;;;;;;12.75;12.75;;;;;29.26;28.38;101223.81;5035381;28;45324;-76
2023/06/15 14:22:49;;;;;;;;;14.75;13.00;;;;;29.31;28.08;101229.63;5036561;28;45407;-76
2023/06/15 14:25:14;;;;;;;;;14.25;12.25;;;;;29.32;28.03;101225.84;5039390;28;45318;-75
2023/06/15 14:27:43;;;;;;;;;10.50;10.50;;;;;29.30;28.28;101214.09;5034254;28;45922;-76
2023/06/15 14:30:09;;;;;;;;;15.75;13.25;;;;;29.36;27.66;101224.44;5033920;28;45525;-77
2023/06/15 14:32:35;;;;;;;;;14.25;12.25;;;;;29.49;27.67;101230.25;5033752;28;45233;-75
2023/06/15 14:35:00;;;;;;;;;13.00;13.00;;;;;29.47;27.53;101218.53;5049848;28;45513;-76
2023/06/15 14:37:25;;;;;;;;;12.25;12.25;;;;;29.53;27.80;101223.31;5034132;28;45307;-76
2023/06/15 14:39:51;;;;;;;;;15.25;14.50;;;;;29.48;27.43;101203.66;5033659;28;45364;-75
2023/06/15 14:42:18;;;;;;;;;15.00;15.00;;;;;29.62;27.83;101229.66;5034039;28;46199;-75
2023/06/15 14:44:43;;;;;;;;;14.75;12.75;;;;;29.61;27.11;101231.53;5034067;28;45286;-76
2023/06/15 14:47:09;;;;;;;;;11.75;11.75;;;;;29.64;27.30;101216.50;5033915;28;46012;-75
2023/06/15 14:49:36;;;;;;;;;13.25;13.25;;;;;29.69;27.57;101217.69;5041147;28;45428;-76
2023/06/15 14:52:01;;;;;;;;;15.25;13.75;;;;;29.65;27.98;101213.56;5043125;28;45398;-77
2023/06/15 14:54:26;;;;;;;;;17.00;15.00;;;;;29.73;27.45;101221.81;5038413;28;45434;-77
2023/06/15 14:56:52;;;;;;;;;19.25;15.00;;;;;29.77;27.13;101210.41;5037311;28;46639;-75
2023/06/15 14:59:17;;;;;;;;;11.00;11.00;;;;;29.83;27.53;101224.34;5041137;28;45569;-76
2023/06/15 15:01:42;;;;;;;;;12.25;10.75;;;;;29.87;27.53;101220.13;5048842;28;45382;-74
2023/06/15 15:04:08;;;;;;;;;15.50;14.00;;;;;29.91;27.24;101224.28;5045122;28;45151;-76
2023/06/15 15:06:33;;;;;;;;;13.00;13.00;;;;;29.90;27.25;101221.69;5049139;28;46354;-75
2023/06/15 15:08:58;;;;;;;;;15.00;14.00;;;;;29.85;27.04;101225.03;5052267;28;45489;-76
2023/06/15 15:11:24;;;;;;;;;14.00;13.25;;;;;29.82;27.33;101219.84;5057099;28;45490;-77
2023/06/15 15:13:50;;;;;;;;;14.25;13.50;;;;;29.79;28.05;101222.97;5023504;28;45425;-75
2023/06/15 15:16:15;;;;;;;;;11.75;11.00;;;;;29.77;27.06;101219.56;5037220;28;45936;-77
2023/06/15 15:18:41;;;;;;;;;16.25;13.00;;;;;29.77;28.05;101211.25;5036756;28;45502;-77
2023/06/15 15:21:07;;;;;;;;;14.50;11.50;;;;;29.80;27.47;101204.47;5045708;28;45500;-77
2023/06/15 15:23:34;;;;;;;;;12.50;11.50;;;;;29.92;28.01;101214.06;5047108;28;45477;-77
2023/06/15 15:25:59;;;;;;;;;13.25;11.00;;;;;30.00;28.00;101209.38;5026633;28;47292;-78
2023/06/15 15:28:26;;;;;;;;;14.25;13.25;;;;;30.08;27.86;101208.44;5051108;28;45332;-77
2023/06/15 15:30:52;;;;;;;;;14.75;14.75;;;;;30.14;27.82;101221.50;5025094;28;45259;-75
2023/06/15 15:33:18;;;;;;;;;13.25;12.50;;;;;30.20;28.11;101219.94;5036321;28;45328;-77
2023/06/15 15:35:43;;;;;;;;;11.25;11.00;;;;;30.23;28.26;101225.06;5027403;28;45965;-75
2023/06/15 15:38:09;;;;;;;;;14.00;13.50;;;;;30.27;28.03;101219.00;5016817;28;45233;-76
2023/06/15 15:40:35;;;;;;;;;11.25;11.25;;;;;30.30;27.94;101212.19;5017121;28;45317;-77